sensor_id;sensor_type;location;lat;lon;timestamp;temperature;humidity
64198;SHT31;50512;53.666;9.700;2024-03-02T00:00:12;8.05;93.89
64198;SHT31;50512;53.666;9.700;2024-03-02T00:02:40;8.09;93.75
64198;SHT31;50512;53.666;9.700;2024-03-02T00:05:11;8.12;93.73
64198;SHT31;50512;53.666;9.700;2024-03-02T00:07:37;8.09;93.74
64198;SHT31;50512;53.666;9.700;2024-03-02T00:10:08;8.09;93.66
64198;SHT31;50512;53.666;9.700;2024-03-02T00:12:36;8.13;93.52
64198;SHT31;50512;53.666;9.700;2024-03-02T00:15:05;8.16;93.57
64198;SHT31;50512;53.666;9.700;2024-03-02T00:17:33;8.25;93.03
64198;SHT31;50512;53.666;9.700;2024-03-02T00:19:59;8.23;93.22
64198;SHT31;50512;53.666;9.700;2024-03-02T00:22:29;8.30;92.86
64198;SHT31;50512;53.666;9.700;2024-03-02T00:24:55;8.34;92.70
64198;SHT31;50512;53.666;9.700;2024-03-02T00:27:22;8.30;92.81
64198;SHT31;50512;53.666;9.700;2024-03-02T00:29:50;8.34;92.66
64198;SHT31;50512;53.666;9.700;2024-03-02T00:32:16;8.39;92.49
64198;SHT31;50512;53.666;9.700;2024-03-02T00:34:43;8.40;92.36
64198;SHT31;50512;53.666;9.700;2024-03-02T00:37:10;8.42;92.35
64198;SHT31;50512;53.666;9.700;2024-03-02T00:39:39;8.34;92.73
64198;SHT31;50512;53.666;9.700;2024-03-02T00:42:05;8.37;92.48
64198;SHT31;50512;53.666;9.700;2024-03-02T00:44:33;8.46;92.11
64198;SHT31;50512;53.666;9.700;2024-03-02T00:47:01;8.53;92.02
64198;SHT31;50512;53.666;9.700;2024-03-02T00:49:28;8.54;91.74
64198;SHT31;50512;53.666;9.700;2024-03-02T00:51:55;8.59;91.67
64198;SHT31;50512;53.666;9.700;2024-03-02T00:54:22;8.54;91.89
64198;SHT31;50512;53.666;9.700;2024-03-02T00:56:51;8.56;91.97
64198;SHT31;50512;53.666;9.700;2024-03-02T00:59:17;8.46;92.22
64198;SHT31;50512;53.666;9.700;2024-03-02T01:01:44;8.56;91.98
64198;SHT31;50512;53.666;9.700;2024-03-02T01:04:10;8.56;92.04
64198;SHT31;50512;53.666;9.700;2024-03-02T01:06:37;8.53;92.14
64198;SHT31;50512;53.666;9.700;2024-03-02T01:09:04;8.46;92.39
64198;SHT31;50512;53.666;9.700;2024-03-02T01:11:30;8.50;92.41
64198;SHT31;50512;53.666;9.700;2024-03-02T01:13:58;8.56;92.14
64198;SHT31;50512;53.666;9.700;2024-03-02T01:16:25;8.57;92.01
64198;SHT31;50512;53.666;9.700;2024-03-02T01:18:51;8.57;92.06
64198;SHT31;50512;53.666;9.700;2024-03-02T01:21:18;8.63;92.00
64198;SHT31;50512;53.666;9.700;2024-03-02T01:23:44;8.56;92.24
64198;SHT31;50512;53.666;9.700;2024-03-02T01:26:11;8.71;91.43
64198;SHT31;50512;53.666;9.700;2024-03-02T01:28:37;8.70;91.47
64198;SHT31;50512;53.666;9.700;2024-03-02T01:31:05;8.70;91.62
64198;SHT31;50512;53.666;9.700;2024-03-02T01:33:31;8.67;91.63
64198;SHT31;50512;53.666;9.700;2024-03-02T01:35:58;8.74;91.42
64198;SHT31;50512;53.666;9.700;2024-03-02T01:38:24;8.64;91.87
64198;SHT31;50512;53.666;9.700;2024-03-02T01:40:51;8.65;91.80
64198;SHT31;50512;53.666;9.700;2024-03-02T01:43:17;8.64;92.04
64198;SHT31;50512;53.666;9.700;2024-03-02T01:45:44;8.60;92.54
64198;SHT31;50512;53.666;9.700;2024-03-02T01:48:12;8.67;92.02
64198;SHT31;50512;53.666;9.700;2024-03-02T01:50:38;8.59;92.52
64198;SHT31;50512;53.666;9.700;2024-03-02T01:53:05;8.47;93.12
64198;SHT31;50512;53.666;9.700;2024-03-02T01:55:31;8.50;93.14
64198;SHT31;50512;53.666;9.700;2024-03-02T01:58:00;8.43;93.55
64198;SHT31;50512;53.666;9.700;2024-03-02T02:00:26;8.44;93.65
64198;SHT31;50512;53.666;9.700;2024-03-02T02:02:53;8.46;93.74
64198;SHT31;50512;53.666;9.700;2024-03-02T02:05:21;8.37;94.19
64198;SHT31;50512;53.666;9.700;2024-03-02T02:07:47;8.46;94.10
64198;SHT31;50512;53.666;9.700;2024-03-02T02:10:14;8.34;94.59
64198;SHT31;50512;53.666;9.700;2024-03-02T02:12:40;8.39;94.57
64198;SHT31;50512;53.666;9.700;2024-03-02T02:15:22;8.32;94.91
64198;SHT31;50512;53.666;9.700;2024-03-02T02:17:48;8.25;95.10
64198;SHT31;50512;53.666;9.700;2024-03-02T02:20:15;8.26;95.25
64198;SHT31;50512;53.666;9.700;2024-03-02T02:22:54;8.25;95.49
64198;SHT31;50512;53.666;9.700;2024-03-02T02:25:20;8.23;95.52
64198;SHT31;50512;53.666;9.700;2024-03-02T02:27:47;8.19;95.77
64198;SHT31;50512;53.666;9.700;2024-03-02T02:30:14;8.22;95.79
64198;SHT31;50512;53.666;9.700;2024-03-02T02:32:44;8.17;95.95
64198;SHT31;50512;53.666;9.700;2024-03-02T02:35:10;8.23;95.62
64198;SHT31;50512;53.666;9.700;2024-03-02T02:37:38;8.17;95.87
64198;SHT31;50512;53.666;9.700;2024-03-02T02:40:07;8.17;95.86
64198;SHT31;50512;53.666;9.700;2024-03-02T02:42:34;8.19;95.50
64198;SHT31;50512;53.666;9.700;2024-03-02T02:45:00;8.16;95.84
64198;SHT31;50512;53.666;9.700;2024-03-02T02:47:27;8.10;95.89
64198;SHT31;50512;53.666;9.700;2024-03-02T02:49:54;8.17;95.21
64198;SHT31;50512;53.666;9.700;2024-03-02T02:52:21;8.13;95.13
64198;SHT31;50512;53.666;9.700;2024-03-02T02:54:47;8.23;94.67
64198;SHT31;50512;53.666;9.700;2024-03-02T02:57:15;8.26;94.29
64198;SHT31;50512;53.666;9.700;2024-03-02T02:59:41;8.28;94.20
64198;SHT31;50512;53.666;9.700;2024-03-02T03:02:08;8.25;94.21
64198;SHT31;50512;53.666;9.700;2024-03-02T03:04:34;8.23;94.37
64198;SHT31;50512;53.666;9.700;2024-03-02T03:07:01;8.19;94.61
64198;SHT31;50512;53.666;9.700;2024-03-02T03:09:27;8.17;94.77
64198;SHT31;50512;53.666;9.700;2024-03-02T03:11:53;8.10;95.12
64198;SHT31;50512;53.666;9.700;2024-03-02T03:14:21;8.10;95.12
64198;SHT31;50512;53.666;9.700;2024-03-02T03:16:47;8.06;95.22
64198;SHT31;50512;53.666;9.700;2024-03-02T03:19:15;8.06;95.42
64198;SHT31;50512;53.666;9.700;2024-03-02T03:21:43;8.09;95.47
64198;SHT31;50512;53.666;9.700;2024-03-02T03:24:09;8.03;95.82
64198;SHT31;50512;53.666;9.700;2024-03-02T03:26:36;8.03;95.96
64198;SHT31;50512;53.666;9.700;2024-03-02T03:29:02;7.99;96.14
64198;SHT31;50512;53.666;9.700;2024-03-02T03:31:30;7.99;96.30
64198;SHT31;50512;53.666;9.700;2024-03-02T03:33:57;7.94;96.52
64198;SHT31;50512;53.666;9.700;2024-03-02T03:36:23;7.88;96.74
64198;SHT31;50512;53.666;9.700;2024-03-02T03:38:50;7.91;96.67
64198;SHT31;50512;53.666;9.700;2024-03-02T03:41:16;7.87;96.91
64198;SHT31;50512;53.666;9.700;2024-03-02T03:43:43;7.79;97.24
64198;SHT31;50512;53.666;9.700;2024-03-02T03:46:09;7.78;97.48
64198;SHT31;50512;53.666;9.700;2024-03-02T03:48:37;7.73;97.78
64198;SHT31;50512;53.666;9.700;2024-03-02T03:51:04;7.74;97.78
64198;SHT31;50512;53.666;9.700;2024-03-02T03:53:30;7.74;97.80
64198;SHT31;50512;53.666;9.700;2024-03-02T03:55:56;7.75;97.62
64198;SHT31;50512;53.666;9.700;2024-03-02T03:58:23;7.81;97.26
64198;SHT31;50512;53.666;9.700;2024-03-02T04:00:49;7.77;97.17
64198;SHT31;50512;53.666;9.700;2024-03-02T04:03:16;7.81;96.97
64198;SHT31;50512;53.666;9.700;2024-03-02T04:05:43;7.75;97.09
64198;SHT31;50512;53.666;9.700;2024-03-02T04:08:10;7.81;96.71
64198;SHT31;50512;53.666;9.700;2024-03-02T04:10:37;7.79;96.83
64198;SHT31;50512;53.666;9.700;2024-03-02T04:13:03;7.79;96.69
64198;SHT31;50512;53.666;9.700;2024-03-02T04:15:30;7.77;96.74
64198;SHT31;50512;53.666;9.700;2024-03-02T04:17:56;7.74;96.93
64198;SHT31;50512;53.666;9.700;2024-03-02T04:20:23;7.68;97.08
64198;SHT31;50512;53.666;9.700;2024-03-02T04:22:51;7.68;97.07
64198;SHT31;50512;53.666;9.700;2024-03-02T04:25:18;7.67;97.10
64198;SHT31;50512;53.666;9.700;2024-03-02T04:27:45;7.64;97.27
64198;SHT31;50512;53.666;9.700;2024-03-02T04:30:12;7.71;96.89
64198;SHT31;50512;53.666;9.700;2024-03-02T04:32:38;7.63;97.38
64198;SHT31;50512;53.666;9.700;2024-03-02T04:35:06;7.58;97.59
64198;SHT31;50512;53.666;9.700;2024-03-02T04:37:34;7.56;97.65
64198;SHT31;50512;53.666;9.700;2024-03-02T04:40:02;7.60;97.54
64198;SHT31;50512;53.666;9.700;2024-03-02T04:42:29;7.54;97.79
64198;SHT31;50512;53.666;9.700;2024-03-02T04:44:55;7.53;97.68
64198;SHT31;50512;53.666;9.700;2024-03-02T04:47:21;7.53;97.61
64198;SHT31;50512;53.666;9.700;2024-03-02T04:49:48;7.50;97.70
64198;SHT31;50512;53.666;9.700;2024-03-02T04:52:14;7.50;97.65
64198;SHT31;50512;53.666;9.700;2024-03-02T04:54:41;7.47;97.56
64198;SHT31;50512;53.666;9.700;2024-03-02T04:57:23;7.51;97.32
64198;SHT31;50512;53.666;9.700;2024-03-02T04:59:49;7.47;97.44
64198;SHT31;50512;53.666;9.700;2024-03-02T05:02:15;7.44;97.38
64198;SHT31;50512;53.666;9.700;2024-03-02T05:04:42;7.54;96.91
64198;SHT31;50512;53.666;9.700;2024-03-02T05:07:08;7.49;97.04
64198;SHT31;50512;53.666;9.700;2024-03-02T05:09:35;7.60;96.49
64198;SHT31;50512;53.666;9.700;2024-03-02T05:12:01;7.57;96.41
64198;SHT31;50512;53.666;9.700;2024-03-02T05:14:52;7.44;96.68
64198;SHT31;50512;53.666;9.700;2024-03-02T05:17:19;7.46;96.60
64198;SHT31;50512;53.666;9.700;2024-03-02T05:19:45;7.44;96.54
64198;SHT31;50512;53.666;9.700;2024-03-02T05:22:11;7.47;96.27
64198;SHT31;50512;53.666;9.700;2024-03-02T05:24:38;7.33;96.85
64198;SHT31;50512;53.666;9.700;2024-03-02T05:27:04;7.30;96.94
64198;SHT31;50512;53.666;9.700;2024-03-02T05:29:32;7.43;96.26
64198;SHT31;50512;53.666;9.700;2024-03-02T05:32:00;7.27;96.50
64198;SHT31;50512;53.666;9.700;2024-03-02T05:34:27;7.27;96.56
64198;SHT31;50512;53.666;9.700;2024-03-02T05:36:53;7.29;96.76
64198;SHT31;50512;53.666;9.700;2024-03-02T05:39:20;7.34;96.51
64198;SHT31;50512;53.666;9.700;2024-03-02T05:41:46;7.30;96.60
64198;SHT31;50512;53.666;9.700;2024-03-02T05:44:12;7.12;96.79
64198;SHT31;50512;53.666;9.700;2024-03-02T05:46:40;7.02;97.17
64198;SHT31;50512;53.666;9.700;2024-03-02T05:49:08;7.19;96.82
64198;SHT31;50512;53.666;9.700;2024-03-02T05:51:35;7.11;97.06
64198;SHT31;50512;53.666;9.700;2024-03-02T05:54:01;7.11;97.32
64198;SHT31;50512;53.666;9.700;2024-03-02T05:56:28;7.01;97.30
64198;SHT31;50512;53.666;9.700;2024-03-02T05:58:54;7.05;97.39
64198;SHT31;50512;53.666;9.700;2024-03-02T06:01:33;7.06;97.00
64198;SHT31;50512;53.666;9.700;2024-03-02T06:04:00;6.88;97.35
64198;SHT31;50512;53.666;9.700;2024-03-02T06:06:28;6.81;98.12
64198;SHT31;50512;53.666;9.700;2024-03-02T06:08:54;6.80;97.98
64198;SHT31;50512;53.666;9.700;2024-03-02T06:11:21;6.73;98.15
64198;SHT31;50512;53.666;9.700;2024-03-02T06:13:48;6.67;98.41
64198;SHT31;50512;53.666;9.700;2024-03-02T06:16:14;6.66;98.26
64198;SHT31;50512;53.666;9.700;2024-03-02T06:18:41;6.68;98.66
64198;SHT31;50512;53.666;9.700;2024-03-02T06:21:07;6.81;97.97
64198;SHT31;50512;53.666;9.700;2024-03-02T06:23:35;6.92;97.55
64198;SHT31;50512;53.666;9.700;2024-03-02T06:26:02;6.68;97.73
64198;SHT31;50512;53.666;9.700;2024-03-02T06:28:28;6.73;98.45
64198;SHT31;50512;53.666;9.700;2024-03-02T06:30:55;6.91;97.79
64198;SHT31;50512;53.666;9.700;2024-03-02T06:33:21;6.95;97.71
64198;SHT31;50512;53.666;9.700;2024-03-02T06:35:47;6.95;97.63
64198;SHT31;50512;53.666;9.700;2024-03-02T06:38:15;6.94;97.78
64198;SHT31;50512;53.666;9.700;2024-03-02T06:40:43;7.03;97.57
64198;SHT31;50512;53.666;9.700;2024-03-02T06:43:09;6.98;97.87
64198;SHT31;50512;53.666;9.700;2024-03-02T06:45:36;6.94;98.18
64198;SHT31;50512;53.666;9.700;2024-03-02T06:48:03;6.96;98.11
64198;SHT31;50512;53.666;9.700;2024-03-02T06:50:30;6.95;98.16
64198;SHT31;50512;53.666;9.700;2024-03-02T06:52:56;7.01;98.11
64198;SHT31;50512;53.666;9.700;2024-03-02T06:55:23;7.02;98.26
64198;SHT31;50512;53.666;9.700;2024-03-02T06:57:51;7.05;98.04
64198;SHT31;50512;53.666;9.700;2024-03-02T07:00:18;7.12;97.52
64198;SHT31;50512;53.666;9.700;2024-03-02T07:02:45;7.15;97.38
64198;SHT31;50512;53.666;9.700;2024-03-02T07:05:12;7.13;97.48
64198;SHT31;50512;53.666;9.700;2024-03-02T07:07:39;7.13;97.49
64198;SHT31;50512;53.666;9.700;2024-03-02T07:10:06;7.26;96.97
64198;SHT31;50512;53.666;9.700;2024-03-02T07:12:33;7.29;96.83
64198;SHT31;50512;53.666;9.700;2024-03-02T07:15:01;7.37;96.30
64198;SHT31;50512;53.666;9.700;2024-03-02T07:17:45;7.44;96.10
64198;SHT31;50512;53.666;9.700;2024-03-02T07:20:12;7.50;95.91
64198;SHT31;50512;53.666;9.700;2024-03-02T07:22:38;7.53;95.86
64198;SHT31;50512;53.666;9.700;2024-03-02T07:25:05;7.51;96.15
64198;SHT31;50512;53.666;9.700;2024-03-02T07:27:32;7.54;95.67
64198;SHT31;50512;53.666;9.700;2024-03-02T07:30:01;7.57;95.46
64198;SHT31;50512;53.666;9.700;2024-03-02T07:32:28;7.57;95.46
64198;SHT31;50512;53.666;9.700;2024-03-02T07:34:54;7.60;95.53
64198;SHT31;50512;53.666;9.700;2024-03-02T07:37:21;7.66;95.05
64198;SHT31;50512;53.666;9.700;2024-03-02T07:39:47;7.67;95.14
64198;SHT31;50512;53.666;9.700;2024-03-02T07:42:14;7.74;94.93
64198;SHT31;50512;53.666;9.700;2024-03-02T07:44:41;7.74;94.73
64198;SHT31;50512;53.666;9.700;2024-03-02T07:47:09;7.81;94.78
64198;SHT31;50512;53.666;9.700;2024-03-02T07:49:35;7.92;93.92
64198;SHT31;50512;53.666;9.700;2024-03-02T07:52:02;8.13;93.73
64198;SHT31;50512;53.666;9.700;2024-03-02T07:54:28;8.29;93.07
64198;SHT31;50512;53.666;9.700;2024-03-02T07:56:55;8.34;92.89
64198;SHT31;50512;53.666;9.700;2024-03-02T07:59:21;8.54;92.11
64198;SHT31;50512;53.666;9.700;2024-03-02T08:01:49;8.82;91.25
64198;SHT31;50512;53.666;9.700;2024-03-02T08:04:17;9.20;90.11
64198;SHT31;50512;53.666;9.700;2024-03-02T08:06:43;9.16;90.72
64198;SHT31;50512;53.666;9.700;2024-03-02T08:09:11;9.15;89.91
64198;SHT31;50512;53.666;9.700;2024-03-02T08:11:37;8.82;90.31
64198;SHT31;50512;53.666;9.700;2024-03-02T08:14:04;9.04;90.87
64198;SHT31;50512;53.666;9.700;2024-03-02T08:16:30;8.99;90.30
64198;SHT31;50512;53.666;9.700;2024-03-02T08:18:58;9.16;89.49
64198;SHT31;50512;53.666;9.700;2024-03-02T08:21:26;9.39;89.55
64198;SHT31;50512;53.666;9.700;2024-03-02T08:23:55;9.43;88.89
64198;SHT31;50512;53.666;9.700;2024-03-02T08:26:22;9.60;88.47
64198;SHT31;50512;53.666;9.700;2024-03-02T08:28:48;9.61;88.16
64198;SHT31;50512;53.666;9.700;2024-03-02T08:31:15;9.67;87.36
64198;SHT31;50512;53.666;9.700;2024-03-02T08:33:41;9.70;87.09
64198;SHT31;50512;53.666;9.700;2024-03-02T08:36:08;9.74;87.49
64198;SHT31;50512;53.666;9.700;2024-03-02T08:38:36;9.67;87.08
64198;SHT31;50512;53.666;9.700;2024-03-02T08:41:03;9.61;87.05
64198;SHT31;50512;53.666;9.700;2024-03-02T08:43:30;9.54;86.94
64198;SHT31;50512;53.666;9.700;2024-03-02T08:45:56;9.55;86.73
64198;SHT31;50512;53.666;9.700;2024-03-02T08:48:23;9.54;86.87
64198;SHT31;50512;53.666;9.700;2024-03-02T08:50:49;9.51;86.99
64198;SHT31;50512;53.666;9.700;2024-03-02T08:53:16;9.67;88.00
64198;SHT31;50512;53.666;9.700;2024-03-02T08:55:45;9.80;86.96
64198;SHT31;50512;53.666;9.700;2024-03-02T08:58:11;9.80;86.32
64198;SHT31;50512;53.666;9.700;2024-03-02T09:00:38;9.94;85.70
64198;SHT31;50512;53.666;9.700;2024-03-02T09:03:05;9.87;85.74
64198;SHT31;50512;53.666;9.700;2024-03-02T09:05:31;10.03;86.34
64198;SHT31;50512;53.666;9.700;2024-03-02T09:07:58;10.13;85.22
64198;SHT31;50512;53.666;9.700;2024-03-02T09:10:24;10.02;85.38
64198;SHT31;50512;53.666;9.700;2024-03-02T09:12:52;10.23;85.83
64198;SHT31;50512;53.666;9.700;2024-03-02T09:15:18;10.40;84.79
64198;SHT31;50512;53.666;9.700;2024-03-02T09:17:45;10.54;84.21
64198;SHT31;50512;53.666;9.700;2024-03-02T09:20:11;10.70;84.15
64198;SHT31;50512;53.666;9.700;2024-03-02T09:22:39;10.91;82.57
64198;SHT31;50512;53.666;9.700;2024-03-02T09:25:07;10.74;82.43
64198;SHT31;50512;53.666;9.700;2024-03-02T09:27:36;11.09;82.71
64198;SHT31;50512;53.666;9.700;2024-03-02T09:30:05;11.29;81.42
64198;SHT31;50512;53.666;9.700;2024-03-02T09:32:33;11.19;81.65
64198;SHT31;50512;53.666;9.700;2024-03-02T09:35:00;11.33;82.18
64198;SHT31;50512;53.666;9.700;2024-03-02T09:37:26;11.19;82.02
64198;SHT31;50512;53.666;9.700;2024-03-02T09:39:54;10.84;81.89
64198;SHT31;50512;53.666;9.700;2024-03-02T09:42:20;11.32;82.61
64198;SHT31;50512;53.666;9.700;2024-03-02T09:44:47;11.42;81.30
64198;SHT31;50512;53.666;9.700;2024-03-02T09:47:15;11.07;82.09
64198;SHT31;50512;53.666;9.700;2024-03-02T09:49:42;11.16;82.62
64198;SHT31;50512;53.666;9.700;2024-03-02T09:52:09;11.20;82.19
64198;SHT31;50512;53.666;9.700;2024-03-02T09:54:36;11.47;81.21
64198;SHT31;50512;53.666;9.700;2024-03-02T09:57:04;11.53;80.54
64198;SHT31;50512;53.666;9.700;2024-03-02T09:59:30;11.37;80.34
64198;SHT31;50512;53.666;9.700;2024-03-02T10:01:58;11.43;81.42
64198;SHT31;50512;53.666;9.700;2024-03-02T10:04:27;11.60;80.60
64198;SHT31;50512;53.666;9.700;2024-03-02T10:07:10;11.62;80.11
64198;SHT31;50512;53.666;9.700;2024-03-02T10:09:37;11.46;80.62
64198;SHT31;50512;53.666;9.700;2024-03-02T10:12:04;11.60;80.49
64198;SHT31;50512;53.666;9.700;2024-03-02T10:14:31;11.66;80.45
64198;SHT31;50512;53.666;9.700;2024-03-02T10:17:02;11.73;80.95
64198;SHT31;50512;53.666;9.700;2024-03-02T10:19:30;11.60;80.25
64198;SHT31;50512;53.666;9.700;2024-03-02T10:21:58;11.37;79.29
64198;SHT31;50512;53.666;9.700;2024-03-02T10:24:25;11.47;80.07
64198;SHT31;50512;53.666;9.700;2024-03-02T10:26:52;11.57;79.40
64198;SHT31;50512;53.666;9.700;2024-03-02T10:29:18;11.75;80.16
64198;SHT31;50512;53.666;9.700;2024-03-02T10:31:46;11.71;79.10
64198;SHT31;50512;53.666;9.700;2024-03-02T10:34:13;11.84;79.38
64198;SHT31;50512;53.666;9.700;2024-03-02T10:36:43;11.81;78.98
64198;SHT31;50512;53.666;9.700;2024-03-02T10:39:13;11.47;77.89
64198;SHT31;50512;53.666;9.700;2024-03-02T10:41:39;11.64;79.09
64198;SHT31;50512;53.666;9.700;2024-03-02T10:44:07;11.77;78.87
64198;SHT31;50512;53.666;9.700;2024-03-02T10:46:34;11.84;78.47
64198;SHT31;50512;53.666;9.700;2024-03-02T10:49:02;11.81;78.04
64198;SHT31;50512;53.666;9.700;2024-03-02T10:51:31;11.80;78.21
64198;SHT31;50512;53.666;9.700;2024-03-02T10:54:00;11.85;78.46
64198;SHT31;50512;53.666;9.700;2024-03-02T10:56:29;11.83;77.69
64198;SHT31;50512;53.666;9.700;2024-03-02T10:59:01;12.06;78.80
64198;SHT31;50512;53.666;9.700;2024-03-02T11:01:29;12.04;77.90
64198;SHT31;50512;53.666;9.700;2024-03-02T11:03:56;11.95;77.43
64198;SHT31;50512;53.666;9.700;2024-03-02T11:06:23;12.05;78.07
64198;SHT31;50512;53.666;9.700;2024-03-02T11:08:53;12.06;78.07
64198;SHT31;50512;53.666;9.700;2024-03-02T11:11:29;11.98;76.60
64198;SHT31;50512;53.666;9.700;2024-03-02T11:13:57;11.88;75.82
64198;SHT31;50512;53.666;9.700;2024-03-02T11:16:31;11.97;76.78
64198;SHT31;50512;53.666;9.700;2024-03-02T11:19:01;12.09;76.74
64198;SHT31;50512;53.666;9.700;2024-03-02T11:21:28;12.12;77.33
64198;SHT31;50512;53.666;9.700;2024-03-02T11:23:55;12.26;77.93
64198;SHT31;50512;53.666;9.700;2024-03-02T11:26:22;12.42;75.97
64198;SHT31;50512;53.666;9.700;2024-03-02T11:28:51;12.33;75.81
64198;SHT31;50512;53.666;9.700;2024-03-02T11:31:17;12.30;75.54
64198;SHT31;50512;53.666;9.700;2024-03-02T11:33:44;12.32;75.53
64198;SHT31;50512;53.666;9.700;2024-03-02T11:36:11;12.35;74.84
64198;SHT31;50512;53.666;9.700;2024-03-02T11:38:37;12.32;74.41
64198;SHT31;50512;53.666;9.700;2024-03-02T11:41:06;12.32;75.73
64198;SHT31;50512;53.666;9.700;2024-03-02T11:43:37;12.46;75.79
64198;SHT31;50512;53.666;9.700;2024-03-02T11:46:06;12.40;73.42
64198;SHT31;50512;53.666;9.700;2024-03-02T11:48:35;12.43;74.68
64198;SHT31;50512;53.666;9.700;2024-03-02T11:51:02;12.35;73.32
64198;SHT31;50512;53.666;9.700;2024-03-02T11:53:30;12.32;74.27
64198;SHT31;50512;53.666;9.700;2024-03-02T11:55:58;12.46;75.83
64198;SHT31;50512;53.666;9.700;2024-03-02T11:58:24;12.45;76.46
64198;SHT31;50512;53.666;9.700;2024-03-02T12:00:52;12.43;75.59
64198;SHT31;50512;53.666;9.700;2024-03-02T12:03:21;12.56;75.65
64198;SHT31;50512;53.666;9.700;2024-03-02T12:05:50;12.55;74.74
64198;SHT31;50512;53.666;9.700;2024-03-02T12:08:16;12.39;74.56
64198;SHT31;50512;53.666;9.700;2024-03-02T12:10:42;12.30;74.87
64198;SHT31;50512;53.666;9.700;2024-03-02T12:13:10;12.39;75.70
64198;SHT31;50512;53.666;9.700;2024-03-02T12:15:38;12.39;75.40
64198;SHT31;50512;53.666;9.700;2024-03-02T12:18:06;12.35;74.59
64198;SHT31;50512;53.666;9.700;2024-03-02T12:20:34;12.42;75.63
64198;SHT31;50512;53.666;9.700;2024-03-02T12:23:02;12.35;74.98
64198;SHT31;50512;53.666;9.700;2024-03-02T12:25:30;12.37;75.23
64198;SHT31;50512;53.666;9.700;2024-03-02T12:28:00;12.46;76.23
64198;SHT31;50512;53.666;9.700;2024-03-02T12:30:27;12.43;76.12
64198;SHT31;50512;53.666;9.700;2024-03-02T12:32:56;12.35;74.92
64198;SHT31;50512;53.666;9.700;2024-03-02T12:35:24;12.50;75.82
64198;SHT31;50512;53.666;9.700;2024-03-02T12:37:53;12.45;74.26
64198;SHT31;50512;53.666;9.700;2024-03-02T12:40:21;12.49;74.53
64198;SHT31;50512;53.666;9.700;2024-03-02T12:42:48;12.42;74.38
64198;SHT31;50512;53.666;9.700;2024-03-02T12:45:16;12.50;74.83
64198;SHT31;50512;53.666;9.700;2024-03-02T12:47:48;12.47;73.58
64198;SHT31;50512;53.666;9.700;2024-03-02T12:50:15;12.40;73.05
64198;SHT31;50512;53.666;9.700;2024-03-02T12:52:42;12.55;74.51
64198;SHT31;50512;53.666;9.700;2024-03-02T12:55:10;12.57;73.59
64198;SHT31;50512;53.666;9.700;2024-03-02T12:57:36;12.56;73.30
64198;SHT31;50512;53.666;9.700;2024-03-02T13:00:04;12.73;74.54
64198;SHT31;50512;53.666;9.700;2024-03-02T13:02:35;12.80;74.74
64198;SHT31;50512;53.666;9.700;2024-03-02T13:05:01;12.74;72.95
64198;SHT31;50512;53.666;9.700;2024-03-02T13:07:28;12.79;73.60
64198;SHT31;50512;53.666;9.700;2024-03-02T13:09:56;12.90;73.54
64198;SHT31;50512;53.666;9.700;2024-03-02T13:12:24;13.00;73.73
64198;SHT31;50512;53.666;9.700;2024-03-02T13:14:52;13.14;74.71
64198;SHT31;50512;53.666;9.700;2024-03-02T13:17:18;13.04;72.53
64198;SHT31;50512;53.666;9.700;2024-03-02T13:19:52;12.92;73.07
64198;SHT31;50512;53.666;9.700;2024-03-02T13:22:19;12.94;72.18
64198;SHT31;50512;53.666;9.700;2024-03-02T13:24:45;13.12;73.85
64198;SHT31;50512;53.666;9.700;2024-03-02T13:27:12;12.98;72.10
64198;SHT31;50512;53.666;9.700;2024-03-02T13:29:40;12.97;73.32
64198;SHT31;50512;53.666;9.700;2024-03-02T13:32:07;13.18;73.15
64198;SHT31;50512;53.666;9.700;2024-03-02T13:34:34;13.18;71.88
64198;SHT31;50512;53.666;9.700;2024-03-02T13:37:01;13.26;71.49
64198;SHT31;50512;53.666;9.700;2024-03-02T13:39:28;13.22;70.89
64198;SHT31;50512;53.666;9.700;2024-03-02T13:41:56;14.28;69.83
64198;SHT31;50512;53.666;9.700;2024-03-02T13:44:29;13.65;70.02
64198;SHT31;50512;53.666;9.700;2024-03-02T13:46:56;13.50;73.36
64198;SHT31;50512;53.666;9.700;2024-03-02T13:49:23;13.28;71.89
64198;SHT31;50512;53.666;9.700;2024-03-02T13:51:53;13.39;72.92
64198;SHT31;50512;53.666;9.700;2024-03-02T13:54:20;13.29;72.24
64198;SHT31;50512;53.666;9.700;2024-03-02T13:56:47;13.30;72.48
64198;SHT31;50512;53.666;9.700;2024-03-02T13:59:13;13.21;72.16
64198;SHT31;50512;53.666;9.700;2024-03-02T14:01:39;13.21;72.73
64198;SHT31;50512;53.666;9.700;2024-03-02T14:04:07;13.21;73.03
64198;SHT31;50512;53.666;9.700;2024-03-02T14:06:34;13.07;72.83
64198;SHT31;50512;53.666;9.700;2024-03-02T14:09:00;13.04;73.48
64198;SHT31;50512;53.666;9.700;2024-03-02T14:11:27;13.04;72.88
64198;SHT31;50512;53.666;9.700;2024-03-02T14:13:54;13.01;73.25
64198;SHT31;50512;53.666;9.700;2024-03-02T14:16:22;13.01;73.11
64198;SHT31;50512;53.666;9.700;2024-03-02T14:18:48;12.94;72.97
64198;SHT31;50512;53.666;9.700;2024-03-02T14:21:16;13.08;73.56
64198;SHT31;50512;53.666;9.700;2024-03-02T14:23:42;13.16;73.48
64198;SHT31;50512;53.666;9.700;2024-03-02T14:26:09;13.14;72.96
64198;SHT31;50512;53.666;9.700;2024-03-02T14:28:35;13.23;73.54
64198;SHT31;50512;53.666;9.700;2024-03-02T14:31:01;13.30;73.64
64198;SHT31;50512;53.666;9.700;2024-03-02T14:33:27;13.16;73.77
64198;SHT31;50512;53.666;9.700;2024-03-02T14:35:54;13.04;73.65
64198;SHT31;50512;53.666;9.700;2024-03-02T14:38:21;13.12;73.24
64198;SHT31;50512;53.666;9.700;2024-03-02T14:40:48;13.11;73.50
64198;SHT31;50512;53.666;9.700;2024-03-02T14:43:14;13.08;73.32
64198;SHT31;50512;53.666;9.700;2024-03-02T14:45:41;13.15;73.64
64198;SHT31;50512;53.666;9.700;2024-03-02T14:48:07;13.05;73.53
64198;SHT31;50512;53.666;9.700;2024-03-02T14:50:34;13.14;73.41
64198;SHT31;50512;53.666;9.700;2024-03-02T14:53:00;13.15;73.14
64198;SHT31;50512;53.666;9.700;2024-03-02T14:55:28;13.10;73.06
64198;SHT31;50512;53.666;9.700;2024-03-02T14:57:55;13.16;73.71
64198;SHT31;50512;53.666;9.700;2024-03-02T15:00:21;13.18;72.92
64198;SHT31;50512;53.666;9.700;2024-03-02T15:02:48;13.21;73.15
64198;SHT31;50512;53.666;9.700;2024-03-02T15:05:15;13.22;73.23
64198;SHT31;50512;53.666;9.700;2024-03-02T15:07:43;13.23;73.81
64198;SHT31;50512;53.666;9.700;2024-03-02T15:10:09;13.26;74.55
64198;SHT31;50512;53.666;9.700;2024-03-02T15:12:37;13.22;73.40
64198;SHT31;50512;53.666;9.700;2024-03-02T15:15:04;13.25;74.68
64198;SHT31;50512;53.666;9.700;2024-03-02T15:17:31;13.16;72.89
64198;SHT31;50512;53.666;9.700;2024-03-02T15:19:58;13.19;72.87
64198;SHT31;50512;53.666;9.700;2024-03-02T15:22:24;13.18;73.95
64198;SHT31;50512;53.666;9.700;2024-03-02T15:24:51;13.19;74.33
64198;SHT31;50512;53.666;9.700;2024-03-02T15:27:19;13.10;74.90
64198;SHT31;50512;53.666;9.700;2024-03-02T15:29:47;13.10;73.90
64198;SHT31;50512;53.666;9.700;2024-03-02T15:32:15;12.98;73.28
64198;SHT31;50512;53.666;9.700;2024-03-02T15:34:42;12.97;73.48
64198;SHT31;50512;53.666;9.700;2024-03-02T15:37:09;12.90;73.17
64198;SHT31;50512;53.666;9.700;2024-03-02T15:39:35;12.87;74.06